sensor_id;sensor_type;location;lat;lon;timestamp;temperature;humidity
37232;DHT22;23125;48.156;15.954;2024-01-15T00:02:21;0.40;54.70
37232;DHT22;23125;48.156;15.954;2024-01-15T00:04:47;0.40;54.70
37232;DHT22;23125;48.156;15.954;2024-01-15T00:07:13;0.40;54.70
37232;DHT22;23125;48.156;15.954;2024-01-15T00:09:39;0.40;54.60
37232;DHT22;23125;48.156;15.954;2024-01-15T00:12:06;0.40;54.50
37232;DHT22;23125;48.156;15.954;2024-01-15T00:14:32;0.30;54.40
37232;DHT22;23125;48.156;15.954;2024-01-15T00:16:58;0.30;54.40
37232;DHT22;23125;48.156;15.954;2024-01-15T00:19:24;0.30;54.40
37232;DHT22;23125;48.156;15.954;2024-01-15T00:21:50;0.20;54.50
37232;DHT22;23125;48.156;15.954;2024-01-15T00:24:16;0.20;54.50
37232;DHT22;23125;48.156;15.954;2024-01-15T00:26:42;0.20;54.50
37232;DHT22;23125;48.156;15.954;2024-01-15T00:29:09;0.10;54.50
37232;DHT22;23125;48.156;15.954;2024-01-15T00:31:35;0.20;54.80
37232;DHT22;23125;48.156;15.954;2024-01-15T00:34:01;0.20;55.00
37232;DHT22;23125;48.156;15.954;2024-01-15T00:36:27;0.20;55.00
37232;DHT22;23125;48.156;15.954;2024-01-15T00:38:54;0.20;55.10
37232;DHT22;23125;48.156;15.954;2024-01-15T00:41:20;0.20;55.10
37232;DHT22;23125;48.156;15.954;2024-01-15T00:43:46;0.20;55.10
37232;DHT22;23125;48.156;15.954;2024-01-15T00:46:14;0.20;55.20
37232;DHT22;23125;48.156;15.954;2024-01-15T00:48:41;0.30;55.30
37232;DHT22;23125;48.156;15.954;2024-01-15T00:51:07;0.30;55.30
37232;DHT22;23125;48.156;15.954;2024-01-15T00:53:33;0.30;55.30
37232;DHT22;23125;48.156;15.954;2024-01-15T00:55:59;0.30;55.30
37232;DHT22;23125;48.156;15.954;2024-01-15T00:58:26;0.40;55.40
37232;DHT22;23125;48.156;15.954;2024-01-15T01:00:52;0.40;55.30
37232;DHT22;23125;48.156;15.954;2024-01-15T01:03:18;0.40;55.40
37232;DHT22;23125;48.156;15.954;2024-01-15T01:05:43;0.40;55.50
37232;DHT22;23125;48.156;15.954;2024-01-15T01:08:10;0.40;55.60
37232;DHT22;23125;48.156;15.954;2024-01-15T01:10:37;0.40;55.50
37232;DHT22;23125;48.156;15.954;2024-01-15T01:13:03;0.50;55.60
37232;DHT22;23125;48.156;15.954;2024-01-15T01:15:29;0.50;55.60
37232;DHT22;23125;48.156;15.954;2024-01-15T01:17:55;0.50;55.70
37232;DHT22;23125;48.156;15.954;2024-01-15T01:20:21;0.50;55.80
37232;DHT22;23125;48.156;15.954;2024-01-15T01:22:47;0.50;55.90
37232;DHT22;23125;48.156;15.954;2024-01-15T01:25:13;0.50;56.00
37232;DHT22;23125;48.156;15.954;2024-01-15T01:27:38;0.60;56.10
37232;DHT22;23125;48.156;15.954;2024-01-15T01:30:05;0.60;56.10
37232;DHT22;23125;48.156;15.954;2024-01-15T01:32:31;0.60;56.10
37232;DHT22;23125;48.156;15.954;2024-01-15T01:34:57;0.60;56.10
37232;DHT22;23125;48.156;15.954;2024-01-15T01:37:23;0.70;56.10
37232;DHT22;23125;48.156;15.954;2024-01-15T01:39:49;0.70;56.10
37232;DHT22;23125;48.156;15.954;2024-01-15T01:42:16;0.70;56.10
37232;DHT22;23125;48.156;15.954;2024-01-15T01:44:42;0.80;56.00
37232;DHT22;23125;48.156;15.954;2024-01-15T01:47:08;0.80;56.00
37232;DHT22;23125;48.156;15.954;2024-01-15T01:49:35;0.70;56.00
37232;DHT22;23125;48.156;15.954;2024-01-15T01:52:02;0.80;56.20
37232;DHT22;23125;48.156;15.954;2024-01-15T01:54:32;0.80;56.30
37232;DHT22;23125;48.156;15.954;2024-01-15T01:56:59;0.80;56.20
37232;DHT22;23125;48.156;15.954;2024-01-15T01:59:27;0.80;56.30
37232;DHT22;23125;48.156;15.954;2024-01-15T02:01:56;0.80;56.30
37232;DHT22;23125;48.156;15.954;2024-01-15T02:04:24;0.80;56.50
37232;DHT22;23125;48.156;15.954;2024-01-15T02:06:51;0.80;56.50
37232;DHT22;23125;48.156;15.954;2024-01-15T02:09:19;0.90;56.60
37232;DHT22;23125;48.156;15.954;2024-01-15T02:11:48;0.90;56.60
37232;DHT22;23125;48.156;15.954;2024-01-15T02:14:15;0.90;56.60
37232;DHT22;23125;48.156;15.954;2024-01-15T02:16:41;0.90;56.40
37232;DHT22;23125;48.156;15.954;2024-01-15T02:19:07;0.90;57.00
37232;DHT22;23125;48.156;15.954;2024-01-15T02:21:33;0.90;56.60
37232;DHT22;23125;48.156;15.954;2024-01-15T02:23:59;0.90;56.70
37232;DHT22;23125;48.156;15.954;2024-01-15T02:26:25;0.90;56.70
37232;DHT22;23125;48.156;15.954;2024-01-15T02:28:51;0.90;56.70
37232;DHT22;23125;48.156;15.954;2024-01-15T02:31:17;0.90;56.70
37232;DHT22;23125;48.156;15.954;2024-01-15T02:33:43;1.00;56.70
37232;DHT22;23125;48.156;15.954;2024-01-15T02:36:12;1.00;56.80
37232;DHT22;23125;48.156;15.954;2024-01-15T02:38:38;1.00;57.00
37232;DHT22;23125;48.156;15.954;2024-01-15T02:41:04;1.00;57.20
37232;DHT22;23125;48.156;15.954;2024-01-15T02:43:30;1.10;57.40
37232;DHT22;23125;48.156;15.954;2024-01-15T02:45:56;1.10;57.50
37232;DHT22;23125;48.156;15.954;2024-01-15T02:48:21;1.20;57.70
37232;DHT22;23125;48.156;15.954;2024-01-15T02:50:47;1.30;58.30
37232;DHT22;23125;48.156;15.954;2024-01-15T02:53:13;1.30;57.80
37232;DHT22;23125;48.156;15.954;2024-01-15T02:55:39;1.40;57.80
37232;DHT22;23125;48.156;15.954;2024-01-15T02:58:05;1.40;58.00
37232;DHT22;23125;48.156;15.954;2024-01-15T03:00:31;1.50;58.10
37232;DHT22;23125;48.156;15.954;2024-01-15T03:02:57;1.60;58.10
37232;DHT22;23125;48.156;15.954;2024-01-15T03:05:22;1.60;58.10
37232;DHT22;23125;48.156;15.954;2024-01-15T03:07:48;1.70;58.00
37232;DHT22;23125;48.156;15.954;2024-01-15T03:10:14;1.70;58.00
37232;DHT22;23125;48.156;15.954;2024-01-15T03:12:40;1.80;58.00
37232;DHT22;23125;48.156;15.954;2024-01-15T03:15:06;1.80;58.00
37232;DHT22;23125;48.156;15.954;2024-01-15T03:17:32;1.90;58.00
37232;DHT22;23125;48.156;15.954;2024-01-15T03:19:58;1.90;57.90
37232;DHT22;23125;48.156;15.954;2024-01-15T03:22:23;2.00;57.80
37232;DHT22;23125;48.156;15.954;2024-01-15T03:24:49;2.00;57.80
37232;DHT22;23125;48.156;15.954;2024-01-15T03:27:15;2.00;57.70
37232;DHT22;23125;48.156;15.954;2024-01-15T03:29:41;2.00;57.90
37232;DHT22;23125;48.156;15.954;2024-01-15T03:32:07;2.00;58.00
37232;DHT22;23125;48.156;15.954;2024-01-15T03:34:33;2.10;58.20
37232;DHT22;23125;48.156;15.954;2024-01-15T03:36:59;2.10;58.30
37232;DHT22;23125;48.156;15.954;2024-01-15T03:39:25;2.20;58.60
37232;DHT22;23125;48.156;15.954;2024-01-15T03:41:51;2.20;58.50
37232;DHT22;23125;48.156;15.954;2024-01-15T03:44:17;2.30;58.60
37232;DHT22;23125;48.156;15.954;2024-01-15T03:46:43;2.40;58.60
37232;DHT22;23125;48.156;15.954;2024-01-15T03:49:09;2.40;58.60
37232;DHT22;23125;48.156;15.954;2024-01-15T03:51:34;2.50;58.60
37232;DHT22;23125;48.156;15.954;2024-01-15T03:54:00;2.50;58.60
37232;DHT22;23125;48.156;15.954;2024-01-15T03:56:26;2.60;58.60
37232;DHT22;23125;48.156;15.954;2024-01-15T03:58:52;2.60;58.60
37232;DHT22;23125;48.156;15.954;2024-01-15T04:01:18;2.70;58.60
37232;DHT22;23125;48.156;15.954;2024-01-15T04:03:43;2.70;58.40
37232;DHT22;23125;48.156;15.954;2024-01-15T04:06:09;2.70;58.50
37232;DHT22;23125;48.156;15.954;2024-01-15T04:08:35;2.80;58.60
37232;DHT22;23125;48.156;15.954;2024-01-15T04:11:01;2.80;58.60
37232;DHT22;23125;48.156;15.954;2024-01-15T04:13:27;2.80;58.60
37232;DHT22;23125;48.156;15.954;2024-01-15T04:15:53;2.80;58.50
37232;DHT22;23125;48.156;15.954;2024-01-15T04:18:19;2.80;58.50
37232;DHT22;23125;48.156;15.954;2024-01-15T04:20:45;2.90;58.50
37232;DHT22;23125;48.156;15.954;2024-01-15T04:23:11;2.90;58.40
37232;DHT22;23125;48.156;15.954;2024-01-15T04:25:36;2.90;58.40
37232;DHT22;23125;48.156;15.954;2024-01-15T04:28:02;2.90;58.40
37232;DHT22;23125;48.156;15.954;2024-01-15T04:30:28;2.90;58.50
37232;DHT22;23125;48.156;15.954;2024-01-15T04:32:54;2.90;58.40
37232;DHT22;23125;48.156;15.954;2024-01-15T04:35:21;2.90;58.40
37232;DHT22;23125;48.156;15.954;2024-01-15T04:37:47;2.90;58.40
37232;DHT22;23125;48.156;15.954;2024-01-15T04:40:13;2.90;58.40
37232;DHT22;23125;48.156;15.954;2024-01-15T04:42:39;3.00;58.40
37232;DHT22;23125;48.156;15.954;2024-01-15T04:45:05;2.90;58.30
37232;DHT22;23125;48.156;15.954;2024-01-15T04:47:30;2.90;58.30
37232;DHT22;23125;48.156;15.954;2024-01-15T04:49:56;2.90;58.30
37232;DHT22;23125;48.156;15.954;2024-01-15T04:52:22;2.90;58.30
37232;DHT22;23125;48.156;15.954;2024-01-15T04:54:49;2.90;58.30
37232;DHT22;23125;48.156;15.954;2024-01-15T04:57:15;2.90;58.40
37232;DHT22;23125;48.156;15.954;2024-01-15T04:59:41;2.90;58.40
37232;DHT22;23125;48.156;15.954;2024-01-15T05:02:07;2.90;58.40
37232;DHT22;23125;48.156;15.954;2024-01-15T05:04:33;2.90;58.50
37232;DHT22;23125;48.156;15.954;2024-01-15T05:06:59;2.80;58.50
37232;DHT22;23125;48.156;15.954;2024-01-15T05:09:25;2.90;58.60
37232;DHT22;23125;48.156;15.954;2024-01-15T05:11:51;2.90;58.50
37232;DHT22;23125;48.156;15.954;2024-01-15T05:14:17;2.90;58.60
37232;DHT22;23125;48.156;15.954;2024-01-15T05:16:49;2.90;58.40
37232;DHT22;23125;48.156;15.954;2024-01-15T05:19:17;2.90;58.40
37232;DHT22;23125;48.156;15.954;2024-01-15T05:21:43;2.90;58.30
37232;DHT22;23125;48.156;15.954;2024-01-15T05:24:09;2.90;58.20
37232;DHT22;23125;48.156;15.954;2024-01-15T05:26:35;2.90;58.10
37232;DHT22;23125;48.156;15.954;2024-01-15T05:29:00;2.80;58.10
37232;DHT22;23125;48.156;15.954;2024-01-15T05:31:26;2.80;58.00
37232;DHT22;23125;48.156;15.954;2024-01-15T05:33:52;2.80;58.10
37232;DHT22;23125;48.156;15.954;2024-01-15T05:36:19;2.80;58.10
37232;DHT22;23125;48.156;15.954;2024-01-15T05:38:44;2.80;58.10
37232;DHT22;23125;48.156;15.954;2024-01-15T05:41:10;2.80;58.10
37232;DHT22;23125;48.156;15.954;2024-01-15T05:43:36;2.70;58.00
37232;DHT22;23125;48.156;15.954;2024-01-15T05:46:02;2.70;57.90
37232;DHT22;23125;48.156;15.954;2024-01-15T05:48:28;2.70;57.90
37232;DHT22;23125;48.156;15.954;2024-01-15T05:50:54;2.70;58.00
37232;DHT22;23125;48.156;15.954;2024-01-15T05:53:20;2.60;58.00
37232;DHT22;23125;48.156;15.954;2024-01-15T05:55:46;2.60;58.00
37232;DHT22;23125;48.156;15.954;2024-01-15T05:58:13;2.60;58.10
37232;DHT22;23125;48.156;15.954;2024-01-15T06:00:40;2.50;58.00
37232;DHT22;23125;48.156;15.954;2024-01-15T06:03:06;2.50;58.00
37232;DHT22;23125;48.156;15.954;2024-01-15T06:05:32;2.50;58.00
37232;DHT22;23125;48.156;15.954;2024-01-15T06:07:58;2.50;58.10
37232;DHT22;23125;48.156;15.954;2024-01-15T06:10:24;2.50;58.10
37232;DHT22;23125;48.156;15.954;2024-01-15T06:12:50;2.40;58.10
37232;DHT22;23125;48.156;15.954;2024-01-15T06:15:16;2.40;58.20
37232;DHT22;23125;48.156;15.954;2024-01-15T06:17:42;2.40;58.30
37232;DHT22;23125;48.156;15.954;2024-01-15T06:20:08;2.40;58.40
37232;DHT22;23125;48.156;15.954;2024-01-15T06:22:34;2.40;58.40
37232;DHT22;23125;48.156;15.954;2024-01-15T06:25:02;2.40;58.50
37232;DHT22;23125;48.156;15.954;2024-01-15T06:27:28;2.40;58.60
37232;DHT22;23125;48.156;15.954;2024-01-15T06:29:54;2.40;58.60
37232;DHT22;23125;48.156;15.954;2024-01-15T06:32:21;2.40;58.70
37232;DHT22;23125;48.156;15.954;2024-01-15T06:34:47;2.40;58.70
37232;DHT22;23125;48.156;15.954;2024-01-15T06:37:13;2.40;58.70
37232;DHT22;23125;48.156;15.954;2024-01-15T06:39:39;2.40;58.80
37232;DHT22;23125;48.156;15.954;2024-01-15T06:42:05;2.40;58.80
37232;DHT22;23125;48.156;15.954;2024-01-15T06:44:31;2.40;58.90
37232;DHT22;23125;48.156;15.954;2024-01-15T06:46:57;2.40;58.90
37232;DHT22;23125;48.156;15.954;2024-01-15T06:49:28;2.40;58.90
37232;DHT22;23125;48.156;15.954;2024-01-15T06:51:55;2.40;58.80
37232;DHT22;23125;48.156;15.954;2024-01-15T06:54:21;2.40;58.90
37232;DHT22;23125;48.156;15.954;2024-01-15T06:56:47;2.40;58.90
37232;DHT22;23125;48.156;15.954;2024-01-15T06:59:13;2.50;59.00
37232;DHT22;23125;48.156;15.954;2024-01-15T07:01:39;2.50;59.00
37232;DHT22;23125;48.156;15.954;2024-01-15T07:04:08;2.50;59.00
37232;DHT22;23125;48.156;15.954;2024-01-15T07:06:34;2.50;59.10
37232;DHT22;23125;48.156;15.954;2024-01-15T07:09:00;2.50;59.10
37232;DHT22;23125;48.156;15.954;2024-01-15T07:11:26;2.60;59.10
37232;DHT22;23125;48.156;15.954;2024-01-15T07:13:52;2.60;59.10
37232;DHT22;23125;48.156;15.954;2024-01-15T07:16:18;2.60;59.10
37232;DHT22;23125;48.156;15.954;2024-01-15T07:18:43;2.60;59.00
37232;DHT22;23125;48.156;15.954;2024-01-15T07:21:10;2.60;59.00
37232;DHT22;23125;48.156;15.954;2024-01-15T07:23:36;2.70;59.10
37232;DHT22;23125;48.156;15.954;2024-01-15T07:26:02;2.70;59.10
37232;DHT22;23125;48.156;15.954;2024-01-15T07:28:31;2.70;59.20
37232;DHT22;23125;48.156;15.954;2024-01-15T07:30:57;2.70;59.20
37232;DHT22;23125;48.156;15.954;2024-01-15T07:33:23;2.80;59.20
37232;DHT22;23125;48.156;15.954;2024-01-15T07:35:49;2.80;59.30
37232;DHT22;23125;48.156;15.954;2024-01-15T07:38:14;2.90;59.30
37232;DHT22;23125;48.156;15.954;2024-01-15T07:40:41;3.00;59.40
37232;DHT22;23125;48.156;15.954;2024-01-15T07:43:07;3.00;59.40
37232;DHT22;23125;48.156;15.954;2024-01-15T07:45:33;3.10;59.40
37232;DHT22;23125;48.156;15.954;2024-01-15T07:47:58;3.10;59.30
37232;DHT22;23125;48.156;15.954;2024-01-15T07:50:24;3.10;59.20
37232;DHT22;23125;48.156;15.954;2024-01-15T07:52:50;3.20;59.30
37232;DHT22;23125;48.156;15.954;2024-01-15T07:55:16;3.20;59.30
37232;DHT22;23125;48.156;15.954;2024-01-15T07:57:44;3.30;59.40
37232;DHT22;23125;48.156;15.954;2024-01-15T08:00:10;3.30;59.30
37232;DHT22;23125;48.156;15.954;2024-01-15T08:02:37;3.40;59.30
37232;DHT22;23125;48.156;15.954;2024-01-15T08:05:04;3.50;59.30
37232;DHT22;23125;48.156;15.954;2024-01-15T08:07:31;3.50;59.20
37232;DHT22;23125;48.156;15.954;2024-01-15T08:09:56;3.60;59.30
37232;DHT22;23125;48.156;15.954;2024-01-15T08:12:22;3.60;59.20
37232;DHT22;23125;48.156;15.954;2024-01-15T08:14:48;3.70;59.50
37232;DHT22;23125;48.156;15.954;2024-01-15T08:17:14;3.80;59.60
37232;DHT22;23125;48.156;15.954;2024-01-15T08:19:42;4.00;60.20
37232;DHT22;23125;48.156;15.954;2024-01-15T08:22:08;4.20;60.40
37232;DHT22;23125;48.156;15.954;2024-01-15T08:24:38;4.40;61.10
37232;DHT22;23125;48.156;15.954;2024-01-15T08:27:04;4.70;61.30
37232;DHT22;23125;48.156;15.954;2024-01-15T08:29:30;5.00;61.50
37232;DHT22;23125;48.156;15.954;2024-01-15T08:32:03;5.20;60.80
37232;DHT22;23125;48.156;15.954;2024-01-15T08:34:30;5.40;60.70
37232;DHT22;23125;48.156;15.954;2024-01-15T08:36:56;5.70;61.10
37232;DHT22;23125;48.156;15.954;2024-01-15T08:39:23;6.00;60.60
37232;DHT22;23125;48.156;15.954;2024-01-15T08:41:49;6.20;60.50
37232;DHT22;23125;48.156;15.954;2024-01-15T08:44:15;6.30;59.30
37232;DHT22;23125;48.156;15.954;2024-01-15T08:46:42;6.50;59.40
37232;DHT22;23125;48.156;15.954;2024-01-15T08:49:09;6.50;58.60
37232;DHT22;23125;48.156;15.954;2024-01-15T08:51:35;6.60;58.20
37232;DHT22;23125;48.156;15.954;2024-01-15T08:54:01;6.70;58.10
37232;DHT22;23125;48.156;15.954;2024-01-15T08:56:27;6.80;58.90
37232;DHT22;23125;48.156;15.954;2024-01-15T08:58:56;7.00;58.50
37232;DHT22;23125;48.156;15.954;2024-01-15T09:01:22;7.10;57.90
37232;DHT22;23125;48.156;15.954;2024-01-15T09:03:49;7.20;57.80
37232;DHT22;23125;48.156;15.954;2024-01-15T09:06:17;7.30;56.80
37232;DHT22;23125;48.156;15.954;2024-01-15T09:08:43;7.40;56.60
37232;DHT22;23125;48.156;15.954;2024-01-15T09:11:10;7.40;56.50
37232;DHT22;23125;48.156;15.954;2024-01-15T09:13:36;7.60;56.70
37232;DHT22;23125;48.156;15.954;2024-01-15T09:16:02;7.70;56.50
37232;DHT22;23125;48.156;15.954;2024-01-15T09:18:28;7.90;56.30
37232;DHT22;23125;48.156;15.954;2024-01-15T09:20:55;8.00;56.40
37232;DHT22;23125;48.156;15.954;2024-01-15T09:23:21;8.10;55.40
37232;DHT22;23125;48.156;15.954;2024-01-15T09:25:47;8.20;55.00
37232;DHT22;23125;48.156;15.954;2024-01-15T09:28:15;8.20;54.30
37232;DHT22;23125;48.156;15.954;2024-01-15T09:30:41;8.20;53.90
37232;DHT22;23125;48.156;15.954;2024-01-15T09:33:07;8.10;53.60
37232;DHT22;23125;48.156;15.954;2024-01-15T09:35:33;8.10;53.40
37232;DHT22;23125;48.156;15.954;2024-01-15T09:37:59;8.10;53.50
37232;DHT22;23125;48.156;15.954;2024-01-15T09:40:31;8.10;53.70
37232;DHT22;23125;48.156;15.954;2024-01-15T09:43:01;8.00;52.90
37232;DHT22;23125;48.156;15.954;2024-01-15T09:45:29;7.90;52.70
37232;DHT22;23125;48.156;15.954;2024-01-15T09:47:56;7.80;52.70
37232;DHT22;23125;48.156;15.954;2024-01-15T09:50:22;7.80;53.10
37232;DHT22;23125;48.156;15.954;2024-01-15T09:52:48;7.80;52.90
37232;DHT22;23125;48.156;15.954;2024-01-15T09:55:15;7.80;53.00
37232;DHT22;23125;48.156;15.954;2024-01-15T09:57:43;7.80;53.00
37232;DHT22;23125;48.156;15.954;2024-01-15T10:00:10;7.90;53.60
37232;DHT22;23125;48.156;15.954;2024-01-15T10:02:37;8.00;53.70
37232;DHT22;23125;48.156;15.954;2024-01-15T10:05:03;8.10;53.60
37232;DHT22;23125;48.156;15.954;2024-01-15T10:07:30;8.10;53.10
37232;DHT22;23125;48.156;15.954;2024-01-15T10:09:59;8.10;52.80
37232;DHT22;23125;48.156;15.954;2024-01-15T10:12:25;8.30;53.10
37232;DHT22;23125;48.156;15.954;2024-01-15T10:14:55;8.30;52.30
37232;DHT22;23125;48.156;15.954;2024-01-15T10:17:21;8.30;52.30
37232;DHT22;23125;48.156;15.954;2024-01-15T10:19:48;8.30;52.60
37232;DHT22;23125;48.156;15.954;2024-01-15T10:22:15;8.40;52.80
37232;DHT22;23125;48.156;15.954;2024-01-15T10:24:41;8.60;53.50
37232;DHT22;23125;48.156;15.954;2024-01-15T10:27:09;8.80;53.30
37232;DHT22;23125;48.156;15.954;2024-01-15T10:29:35;8.90;53.00
37232;DHT22;23125;48.156;15.954;2024-01-15T10:32:07;9.00;52.70
37232;DHT22;23125;48.156;15.954;2024-01-15T10:34:38;9.10;52.00
37232;DHT22;23125;48.156;15.954;2024-01-15T10:37:07;9.10;51.60
37232;DHT22;23125;48.156;15.954;2024-01-15T10:39:33;9.10;51.10
37232;DHT22;23125;48.156;15.954;2024-01-15T10:41:59;9.00;51.00
37232;DHT22;23125;48.156;15.954;2024-01-15T10:44:25;9.00;51.10
37232;DHT22;23125;48.156;15.954;2024-01-15T10:46:51;9.00;51.70
37232;DHT22;23125;48.156;15.954;2024-01-15T10:49:18;9.10;51.70
37232;DHT22;23125;48.156;15.954;2024-01-15T10:51:46;9.00;50.90
37232;DHT22;23125;48.156;15.954;2024-01-15T10:54:13;9.00;50.70
37232;DHT22;23125;48.156;15.954;2024-01-15T10:56:40;8.90;50.70
37232;DHT22;23125;48.156;15.954;2024-01-15T10:59:08;8.90;50.70
37232;DHT22;23125;48.156;15.954;2024-01-15T11:01:36;8.80;50.40
37232;DHT22;23125;48.156;15.954;2024-01-15T11:04:04;8.70;50.30
37232;DHT22;23125;48.156;15.954;2024-01-15T11:06:44;8.60;50.30
37232;DHT22;23125;48.156;15.954;2024-01-15T11:09:12;8.50;50.50
37232;DHT22;23125;48.156;15.954;2024-01-15T11:11:45;8.40;50.60
37232;DHT22;23125;48.156;15.954;2024-01-15T11:14:41;8.20;50.30
37232;DHT22;23125;48.156;15.954;2024-01-15T11:17:10;8.10;50.50
37232;DHT22;23125;48.156;15.954;2024-01-15T11:19:38;8.00;50.60
37232;DHT22;23125;48.156;15.954;2024-01-15T11:22:11;7.90;50.70
37232;DHT22;23125;48.156;15.954;2024-01-15T11:25:01;7.80;51.10
37232;DHT22;23125;48.156;15.954;2024-01-15T11:27:40;7.80;51.30
37232;DHT22;23125;48.156;15.954;2024-01-15T11:30:11;7.70;51.20
37232;DHT22;23125;48.156;15.954;2024-01-15T11:32:43;7.70;51.60
37232;DHT22;23125;48.156;15.954;2024-01-15T11:35:10;7.70;51.60
37232;DHT22;23125;48.156;15.954;2024-01-15T11:37:59;7.60;51.80
37232;DHT22;23125;48.156;15.954;2024-01-15T11:43:03;7.50;51.70
37232;DHT22;23125;48.156;15.954;2024-01-15T11:45:31;7.40;51.70
37232;DHT22;23125;48.156;15.954;2024-01-15T11:48:14;7.30;51.90
37232;DHT22;23125;48.156;15.954;2024-01-15T11:50:48;7.20;52.00
37232;DHT22;23125;48.156;15.954;2024-01-15T11:53:36;7.20;52.40
37232;DHT22;23125;48.156;15.954;2024-01-15T11:56:12;7.10;52.50
37232;DHT22;23125;48.156;15.954;2024-01-15T11:58:47;7.00;52.50
37232;DHT22;23125;48.156;15.954;2024-01-15T12:01:13;7.00;52.80
37232;DHT22;23125;48.156;15.954;2024-01-15T12:03:39;6.90;52.90
37232;DHT22;23125;48.156;15.954;2024-01-15T12:06:09;6.90;53.20
37232;DHT22;23125;48.156;15.954;2024-01-15T12:08:36;6.80;53.30
37232;DHT22;23125;48.156;15.954;2024-01-15T12:11:09;6.80;53.50
37232;DHT22;23125;48.156;15.954;2024-01-15T12:13:36;6.80;53.60
37232;DHT22;23125;48.156;15.954;2024-01-15T12:16:02;6.80;53.60
37232;DHT22;23125;48.156;15.954;2024-01-15T12:18:29;6.90;54.00
37232;DHT22;23125;48.156;15.954;2024-01-15T12:20:57;6.90;54.00
37232;DHT22;23125;48.156;15.954;2024-01-15T12:23:24;6.90;54.20
37232;DHT22;23125;48.156;15.954;2024-01-15T12:25:50;6.90;53.90
37232;DHT22;23125;48.156;15.954;2024-01-15T12:28:16;6.90;53.90
37232;DHT22;23125;48.156;15.954;2024-01-15T12:30:46;6.90;53.80
37232;DHT22;23125;48.156;15.954;2024-01-15T12:33:14;6.90;53.80
37232;DHT22;23125;48.156;15.954;2024-01-15T12:35:40;6.90;53.50
37232;DHT22;23125;48.156;15.954;2024-01-15T12:38:06;6.90;53.40
37232;DHT22;23125;48.156;15.954;2024-01-15T12:40:33;6.90;53.40
37232;DHT22;23125;48.156;15.954;2024-01-15T12:43:00;6.90;53.40
37232;DHT22;23125;48.156;15.954;2024-01-15T12:45:29;6.90;53.60
37232;DHT22;23125;48.156;15.954;2024-01-15T12:47:55;6.90;53.30
37232;DHT22;23125;48.156;15.954;2024-01-15T12:50:24;6.90;53.30
37232;DHT22;23125;48.156;15.954;2024-01-15T12:52:51;6.90;53.30
37232;DHT22;23125;48.156;15.954;2024-01-15T12:55:17;6.90;53.10
37232;DHT22;23125;48.156;15.954;2024-01-15T12:57:42;6.90;52.90
37232;DHT22;23125;48.156;15.954;2024-01-15T13:00:10;6.80;52.90
37232;DHT22;23125;48.156;15.954;2024-01-15T13:02:39;6.80;53.00
37232;DHT22;23125;48.156;15.954;2024-01-15T13:05:10;6.70;52.90
37232;DHT22;23125;48.156;15.954;2024-01-15T13:07:39;6.70;53.00
37232;DHT22;23125;48.156;15.954;2024-01-15T13:10:06;6.70;53.10
37232;DHT22;23125;48.156;15.954;2024-01-15T13:12:33;6.70;53.00
37232;DHT22;23125;48.156;15.954;2024-01-15T13:14:59;6.70;53.00
37232;DHT22;23125;48.156;15.954;2024-01-15T13:17:27;6.60;52.80
37232;DHT22;23125;48.156;15.954;2024-01-15T13:19:53;6.60;52.80
37232;DHT22;23125;48.156;15.954;2024-01-15T13:22:19;6.50;52.60
37232;DHT22;23125;48.156;15.954;2024-01-15T13:24:45;6.50;52.80
37232;DHT22;23125;48.156;15.954;2024-01-15T13:27:11;6.50;52.70
37232;DHT22;23125;48.156;15.954;2024-01-15T13:29:37;6.50;52.80
37232;DHT22;23125;48.156;15.954;2024-01-15T13:32:04;6.50;52.60
37232;DHT22;23125;48.156;15.954;2024-01-15T13:34:31;6.40;52.50
37232;DHT22;23125;48.156;15.954;2024-01-15T13:36:57;6.30;52.50
37232;DHT22;23125;48.156;15.954;2024-01-15T13:39:23;6.30;52.60
37232;DHT22;23125;48.156;15.954;2024-01-15T13:41:49;6.40;52.80
37232;DHT22;23125;48.156;15.954;2024-01-15T13:44:15;6.30;52.60
37232;DHT22;23125;48.156;15.954;2024-01-15T13:46:41;6.30;52.70
37232;DHT22;23125;48.156;15.954;2024-01-15T13:49:07;6.30;52.70
37232;DHT22;23125;48.156;15.954;2024-01-15T13:51:35;6.30;52.90
37232;DHT22;23125;48.156;15.954;2024-01-15T13:54:02;6.30;52.80
37232;DHT22;23125;48.156;15.954;2024-01-15T13:56:30;6.30;52.80
37232;DHT22;23125;48.156;15.954;2024-01-15T13:58:58;6.30;52.80
37232;DHT22;23125;48.156;15.954;2024-01-15T14:01:25;6.30;52.70
37232;DHT22;23125;48.156;15.954;2024-01-15T14:03:53;6.30;52.80
37232;DHT22;23125;48.156;15.954;2024-01-15T14:06:24;6.30;52.70
37232;DHT22;23125;48.156;15.954;2024-01-15T14:08:50;6.30;52.70
37232;DHT22;23125;48.156;15.954;2024-01-15T14:11:16;6.30;52.60
37232;DHT22;23125;48.156;15.954;2024-01-15T14:13:42;6.30;52.60
37232;DHT22;23125;48.156;15.954;2024-01-15T14:16:10;6.30;52.60
37232;DHT22;23125;48.156;15.954;2024-01-15T14:18:37;6.20;52.20
37232;DHT22;23125;48.156;15.954;2024-01-15T14:21:04;6.20;52.20
37232;DHT22;23125;48.156;15.954;2024-01-15T14:23:31;6.10;52.10
37232;DHT22;23125;48.156;15.954;2024-01-15T14:25:56;6.10;52.10
37232;DHT22;23125;48.156;15.954;2024-01-15T14:28:22;6.10;52.00
37232;DHT22;23125;48.156;15.954;2024-01-15T14:30:49;6.00;52.00
37232;DHT22;23125;48.156;15.954;2024-01-15T14:33:15;5.90;51.90
37232;DHT22;23125;48.156;15.954;2024-01-15T14:35:41;5.90;51.90
37232;DHT22;23125;48.156;15.954;2024-01-15T14:38:06;5.80;51.90
37232;DHT22;23125;48.156;15.954;2024-01-15T14:40:34;5.80;51.90
37232;DHT22;23125;48.156;15.954;2024-01-15T14:43:01;5.70;51.90
37232;DHT22;23125;48.156;15.954;2024-01-15T14:45:27;5.70;51.90
37232;DHT22;23125;48.156;15.954;2024-01-15T14:47:54;5.60;51.90
37232;DHT22;23125;48.156;15.954;2024-01-15T14:50:20;5.60;51.90
37232;DHT22;23125;48.156;15.954;2024-01-15T14:52:45;5.50;51.90
37232;DHT22;23125;48.156;15.954;2024-01-15T14:55:12;5.50;52.00
37232;DHT22;23125;48.156;15.954;2024-01-15T14:57:38;5.40;52.00
37232;DHT22;23125;48.156;15.954;2024-01-15T15:00:06;5.30;52.10
37232;DHT22;23125;48.156;15.954;2024-01-15T15:02:37;5.30;52.20
37232;DHT22;23125;48.156;15.954;2024-01-15T15:05:04;5.30;52.20
37232;DHT22;23125;48.156;15.954;2024-01-15T15:07:30;5.30;52.30
37232;DHT22;23125;48.156;15.954;2024-01-15T15:09:56;5.20;52.40
37232;DHT22;23125;48.156;15.954;2024-01-15T15:12:22;5.20;52.40
37232;DHT22;23125;48.156;15.954;2024-01-15T15:14:48;5.20;52.40
37232;DHT22;23125;48.156;15.954;2024-01-15T15:17:14;5.20;52.50
37232;DHT22;23125;48.156;15.954;2024-01-15T15:19:40;5.10;52.50
37232;DHT22;23125;48.156;15.954;2024-01-15T15:22:07;5.10;52.50
37232;DHT22;23125;48.156;15.954;2024-01-15T15:24:39;5.10;52.50
37232;DHT22;23125;48.156;15.954;2024-01-15T15:27:05;5.10;52.50
37232;DHT22;23125;48.156;15.954;2024-01-15T15:29:32;5.10;52.50
37232;DHT22;23125;48.156;15.954;2024-01-15T15:31:58;5.00;52.50